sensor_id;sensor_type;location;lat;lon;timestamp;pressure;altitude;pressure_sealevel;temperature;humidity
76054;BME280;64752;48.870;9.082;2024-03-22T00:02:05;98665.41;;;7.70;100.00
76054;BME280;64752;48.870;9.082;2024-03-22T00:04:31;98657.81;;;7.58;100.00
76054;BME280;64752;48.870;9.082;2024-03-22T00:06:56;98649.22;;;7.58;100.00
76054;BME280;64752;48.870;9.082;2024-03-22T00:09:21;98645.00;;;7.50;100.00
76054;BME280;64752;48.870;9.082;2024-03-22T00:11:47;98650.16;;;7.49;100.00
76054;BME280;64752;48.870;9.082;2024-03-22T00:14:12;98645.81;;;7.54;100.00
76054;BME280;64752;48.870;9.082;2024-03-22T00:16:38;98653.47;;;7.59;100.00
76054;BME280;64752;48.870;9.082;2024-03-22T00:19:03;98643.28;;;7.48;100.00
76054;BME280;64752;48.870;9.082;2024-03-22T00:21:29;98639.06;;;7.42;100.00
76054;BME280;64752;48.870;9.082;2024-03-22T00:23:55;98640.94;;;7.29;100.00
76054;BME280;64752;48.870;9.082;2024-03-22T00:26:20;98633.50;;;7.02;100.00
76054;BME280;64752;48.870;9.082;2024-03-22T00:28:46;98634.28;;;7.10;100.00
76054;BME280;64752;48.870;9.082;2024-03-22T00:31:12;98632.66;;;7.03;100.00
76054;BME280;64752;48.870;9.082;2024-03-22T00:33:37;98634.47;;;6.93;100.00
76054;BME280;64752;48.870;9.082;2024-03-22T00:36:02;98637.88;;;6.97;100.00
76054;BME280;64752;48.870;9.082;2024-03-22T00:38:28;98632.88;;;6.78;100.00
76054;BME280;64752;48.870;9.082;2024-03-22T00:40:53;98627.50;;;7.01;100.00
76054;BME280;64752;48.870;9.082;2024-03-22T00:43:20;98629.84;;;7.24;100.00
76054;BME280;64752;48.870;9.082;2024-03-22T00:45:45;98618.22;;;6.83;100.00
76054;BME280;64752;48.870;9.082;2024-03-22T00:48:10;98620.06;;;6.72;100.00
76054;BME280;64752;48.870;9.082;2024-03-22T00:50:36;98620.91;;;6.74;100.00
76054;BME280;64752;48.870;9.082;2024-03-22T00:53:01;98617.22;;;6.98;100.00
76054;BME280;64752;48.870;9.082;2024-03-22T00:55:28;98610.66;;;6.68;100.00
76054;BME280;64752;48.870;9.082;2024-03-22T00:57:53;98610.16;;;7.16;100.00
76054;BME280;64752;48.870;9.082;2024-03-22T01:00:19;98607.00;;;6.89;100.00
76054;BME280;64752;48.870;9.082;2024-03-22T01:02:44;98603.69;;;6.78;100.00
76054;BME280;64752;48.870;9.082;2024-03-22T01:05:10;98594.22;;;6.80;100.00
76054;BME280;64752;48.870;9.082;2024-03-22T01:07:36;98594.09;;;6.92;100.00
76054;BME280;64752;48.870;9.082;2024-03-22T01:10:03;98590.59;;;6.94;100.00
76054;BME280;64752;48.870;9.082;2024-03-22T01:12:29;98595.09;;;6.80;100.00
76054;BME280;64752;48.870;9.082;2024-03-22T01:14:54;98587.38;;;6.75;100.00
76054;BME280;64752;48.870;9.082;2024-03-22T01:17:20;98575.44;;;6.68;100.00
76054;BME280;64752;48.870;9.082;2024-03-22T01:19:45;98576.25;;;6.70;100.00
76054;BME280;64752;48.870;9.082;2024-03-22T01:22:10;98572.00;;;6.69;100.00
76054;BME280;64752;48.870;9.082;2024-03-22T01:24:36;98575.53;;;6.57;100.00
76054;BME280;64752;48.870;9.082;2024-03-22T01:27:01;98572.19;;;6.51;100.00
76054;BME280;64752;48.870;9.082;2024-03-22T01:29:26;98577.38;;;6.43;100.00
76054;BME280;64752;48.870;9.082;2024-03-22T01:31:55;98577.28;;;6.54;100.00
76054;BME280;64752;48.870;9.082;2024-03-22T01:34:20;98581.53;;;6.60;100.00
76054;BME280;64752;48.870;9.082;2024-03-22T01:36:46;98578.94;;;6.60;100.00
76054;BME280;64752;48.870;9.082;2024-03-22T01:39:11;98580.69;;;6.57;100.00
76054;BME280;64752;48.870;9.082;2024-03-22T01:41:36;98581.31;;;6.81;100.00
76054;BME280;64752;48.870;9.082;2024-03-22T01:44:02;98578.91;;;6.63;100.00
76054;BME280;64752;48.870;9.082;2024-03-22T01:46:27;98564.44;;;6.51;100.00
76054;BME280;64752;48.870;9.082;2024-03-22T01:48:52;98577.44;;;6.40;100.00
76054;BME280;64752;48.870;9.082;2024-03-22T01:51:18;98565.47;;;6.31;100.00
76054;BME280;64752;48.870;9.082;2024-03-22T01:53:43;98562.06;;;6.31;100.00
76054;BME280;64752;48.870;9.082;2024-03-22T01:56:10;98555.94;;;6.41;100.00
76054;BME280;64752;48.870;9.082;2024-03-22T01:58:36;98557.63;;;6.45;100.00
76054;BME280;64752;48.870;9.082;2024-03-22T02:01:01;98553.31;;;6.49;100.00
76054;BME280;64752;48.870;9.082;2024-03-22T02:03:27;98544.69;;;6.51;100.00
76054;BME280;64752;48.870;9.082;2024-03-22T02:05:52;98541.19;;;6.57;100.00
76054;BME280;64752;48.870;9.082;2024-03-22T02:08:18;98542.78;;;6.69;100.00
76054;BME280;64752;48.870;9.082;2024-03-22T02:10:44;98526.34;;;6.79;100.00
76054;BME280;64752;48.870;9.082;2024-03-22T02:13:10;98534.81;;;6.87;100.00
76054;BME280;64752;48.870;9.082;2024-03-22T02:15:35;98528.69;;;6.99;100.00
76054;BME280;64752;48.870;9.082;2024-03-22T02:18:01;98539.25;;;7.46;100.00
76054;BME280;64752;48.870;9.082;2024-03-22T02:20:26;98527.31;;;7.39;100.00
76054;BME280;64752;48.870;9.082;2024-03-22T02:22:51;98524.66;;;7.46;100.00
76054;BME280;64752;48.870;9.082;2024-03-22T02:25:17;98530.19;;;7.17;100.00
76054;BME280;64752;48.870;9.082;2024-03-22T02:27:43;98530.25;;;7.09;100.00
76054;BME280;64752;48.870;9.082;2024-03-22T02:30:08;98531.13;;;7.11;100.00
76054;BME280;64752;48.870;9.082;2024-03-22T02:32:34;98524.16;;;7.18;100.00
76054;BME280;64752;48.870;9.082;2024-03-22T02:34:59;98530.34;;;7.05;100.00
76054;BME280;64752;48.870;9.082;2024-03-22T02:37:24;98520.19;;;6.91;100.00
76054;BME280;64752;48.870;9.082;2024-03-22T02:39:50;98518.63;;;6.79;100.00
76054;BME280;64752;48.870;9.082;2024-03-22T02:42:15;98522.22;;;6.66;100.00
76054;BME280;64752;48.870;9.082;2024-03-22T02:44:40;98506.78;;;6.60;100.00
76054;BME280;64752;48.870;9.082;2024-03-22T02:47:08;98513.75;;;6.53;100.00
76054;BME280;64752;48.870;9.082;2024-03-22T02:49:33;98505.09;;;6.62;100.00
76054;BME280;64752;48.870;9.082;2024-03-22T02:51:58;98509.16;;;6.78;100.00
76054;BME280;64752;48.870;9.082;2024-03-22T02:54:24;98509.09;;;6.86;100.00
76054;BME280;64752;48.870;9.082;2024-03-22T02:56:49;98508.16;;;6.91;100.00
76054;BME280;64752;48.870;9.082;2024-03-22T02:59:14;98509.94;;;6.85;100.00
76054;BME280;64752;48.870;9.082;2024-03-22T03:01:39;98506.31;;;7.03;100.00
76054;BME280;64752;48.870;9.082;2024-03-22T03:04:05;98502.66;;;7.19;100.00
76054;BME280;64752;48.870;9.082;2024-03-22T03:06:30;98510.38;;;7.21;100.00
76054;BME280;64752;48.870;9.082;2024-03-22T03:08:55;98498.31;;;7.23;100.00
76054;BME280;64752;48.870;9.082;2024-03-22T03:11:21;98500.91;;;7.21;100.00
76054;BME280;64752;48.870;9.082;2024-03-22T03:13:46;98504.47;;;7.09;100.00
76054;BME280;64752;48.870;9.082;2024-03-22T03:16:11;98490.06;;;6.94;100.00
76054;BME280;64752;48.870;9.082;2024-03-22T03:18:37;98493.47;;;6.98;100.00
76054;BME280;64752;48.870;9.082;2024-03-22T03:21:02;98493.47;;;6.98;100.00
76054;BME280;64752;48.870;9.082;2024-03-22T03:23:27;98500.22;;;7.07;100.00
76054;BME280;64752;48.870;9.082;2024-03-22T03:25:52;98493.38;;;7.06;100.00
76054;BME280;64752;48.870;9.082;2024-03-22T03:28:18;98488.25;;;7.03;100.00
76054;BME280;64752;48.870;9.082;2024-03-22T03:30:44;98489.91;;;7.08;100.00
76054;BME280;64752;48.870;9.082;2024-03-22T03:33:09;98488.59;;;7.40;100.00
76054;BME280;64752;48.870;9.082;2024-03-22T03:35:35;98489.38;;;7.45;100.00
76054;BME280;64752;48.870;9.082;2024-03-22T03:38:00;98482.41;;;7.52;100.00
76054;BME280;64752;48.870;9.082;2024-03-22T03:40:25;98479.75;;;7.55;100.00
76054;BME280;64752;48.870;9.082;2024-03-22T03:42:52;98482.44;;;7.50;100.00
76054;BME280;64752;48.870;9.082;2024-03-22T03:45:17;98476.44;;;7.50;100.00
76054;BME280;64752;48.870;9.082;2024-03-22T03:47:43;98482.56;;;7.41;100.00
76054;BME280;64752;48.870;9.082;2024-03-22T03:50:08;98467.25;;;7.30;100.00
76054;BME280;64752;48.870;9.082;2024-03-22T03:52:34;98472.56;;;7.18;100.00
76054;BME280;64752;48.870;9.082;2024-03-22T03:54:59;98469.25;;;7.10;100.00
76054;BME280;64752;48.870;9.082;2024-03-22T03:57:24;98471.16;;;6.95;100.00
76054;BME280;64752;48.870;9.082;2024-03-22T03:59:49;98468.50;;;7.00;100.00
76054;BME280;64752;48.870;9.082;2024-03-22T04:02:15;98470.09;;;7.10;100.00
76054;BME280;64752;48.870;9.082;2024-03-22T04:04:40;98472.53;;;7.21;100.00
76054;BME280;64752;48.870;9.082;2024-03-22T04:07:05;98466.25;;;7.41;100.00
76054;BME280;64752;48.870;9.082;2024-03-22T04:09:31;98470.38;;;7.51;100.00
76054;BME280;64752;48.870;9.082;2024-03-22T04:11:57;98466.84;;;7.57;100.00
76054;BME280;64752;48.870;9.082;2024-03-22T04:14:24;98465.16;;;7.56;100.00
76054;BME280;64752;48.870;9.082;2024-03-22T04:16:50;98462.34;;;7.69;100.00
76054;BME280;64752;48.870;9.082;2024-03-22T04:19:15;98466.66;;;7.69;100.00
76054;BME280;64752;48.870;9.082;2024-03-22T04:21:40;98456.06;;;7.84;100.00
76054;BME280;64752;48.870;9.082;2024-03-22T04:24:06;98455.84;;;7.98;100.00
76054;BME280;64752;48.870;9.082;2024-03-22T04:26:31;98464.28;;;8.08;100.00
76054;BME280;64752;48.870;9.082;2024-03-22T04:28:57;98464.88;;;8.22;100.00
76054;BME280;64752;48.870;9.082;2024-03-22T04:31:22;98463.34;;;8.12;100.00
76054;BME280;64752;48.870;9.082;2024-03-22T04:33:47;98455.91;;;7.94;100.00
76054;BME280;64752;48.870;9.082;2024-03-22T04:36:13;98459.44;;;7.89;100.00
76054;BME280;64752;48.870;9.082;2024-03-22T04:38:38;98462.94;;;7.85;100.00
76054;BME280;64752;48.870;9.082;2024-03-22T04:41:03;98468.91;;;7.90;100.00
76054;BME280;64752;48.870;9.082;2024-03-22T04:43:29;98478.34;;;7.90;100.00
76054;BME280;64752;48.870;9.082;2024-03-22T04:45:54;98479.25;;;7.89;100.00
76054;BME280;64752;48.870;9.082;2024-03-22T04:48:21;98470.66;;;7.88;100.00
76054;BME280;64752;48.870;9.082;2024-03-22T04:50:50;98475.53;;;8.04;100.00
76054;BME280;64752;48.870;9.082;2024-03-22T04:53:16;98486.63;;;8.10;100.00
76054;BME280;64752;48.870;9.082;2024-03-22T04:55:45;98474.66;;;8.05;100.00
76054;BME280;64752;48.870;9.082;2024-03-22T04:58:14;98480.44;;;8.18;100.00
76054;BME280;64752;48.870;9.082;2024-03-22T05:00:41;98471.66;;;8.29;100.00
76054;BME280;64752;48.870;9.082;2024-03-22T05:03:07;98474.25;;;8.28;100.00
76054;BME280;64752;48.870;9.082;2024-03-22T05:05:33;98476.00;;;8.27;100.00
76054;BME280;64752;48.870;9.082;2024-03-22T05:07:58;98473.47;;;8.24;100.00
76054;BME280;64752;48.870;9.082;2024-03-22T05:10:24;98471.75;;;8.23;100.00
76054;BME280;64752;48.870;9.082;2024-03-22T05:12:49;98474.31;;;8.25;100.00
76054;BME280;64752;48.870;9.082;2024-03-22T05:15:15;98468.16;;;8.30;100.00
76054;BME280;64752;48.870;9.082;2024-03-22T05:17:40;98464.63;;;8.36;100.00
76054;BME280;64752;48.870;9.082;2024-03-22T05:20:07;98459.38;;;8.42;100.00
76054;BME280;64752;48.870;9.082;2024-03-22T05:22:39;98460.97;;;8.49;100.00
76054;BME280;64752;48.870;9.082;2024-03-22T05:25:05;98464.38;;;8.52;100.00
76054;BME280;64752;48.870;9.082;2024-03-22T05:27:31;98456.66;;;8.50;100.00
76054;BME280;64752;48.870;9.082;2024-03-22T05:29:58;98456.50;;;8.56;100.00
76054;BME280;64752;48.870;9.082;2024-03-22T05:32:23;98454.66;;;8.64;100.00
76054;BME280;64752;48.870;9.082;2024-03-22T05:34:49;98452.13;;;8.60;100.00
76054;BME280;64752;48.870;9.082;2024-03-22T05:37:15;98438.38;;;8.59;100.00
76054;BME280;64752;48.870;9.082;2024-03-22T05:39:40;98440.03;;;8.62;100.00
76054;BME280;64752;48.870;9.082;2024-03-22T05:42:06;98448.53;;;8.68;100.00
76054;BME280;64752;48.870;9.082;2024-03-22T05:44:32;98439.09;;;8.66;100.00
76054;BME280;64752;48.870;9.082;2024-03-22T05:46:57;98441.72;;;8.64;100.00
76054;BME280;64752;48.870;9.082;2024-03-22T05:49:23;98439.19;;;8.61;100.00
76054;BME280;64752;48.870;9.082;2024-03-22T05:51:48;98437.56;;;8.57;100.00
76054;BME280;64752;48.870;9.082;2024-03-22T05:54:13;98435.94;;;8.52;100.00
76054;BME280;64752;48.870;9.082;2024-03-22T05:56:39;98432.56;;;8.48;100.00
76054;BME280;64752;48.870;9.082;2024-03-22T05:59:04;98423.06;;;8.48;100.00
76054;BME280;64752;48.870;9.082;2024-03-22T06:01:29;98418.69;;;8.52;100.00
76054;BME280;64752;48.870;9.082;2024-03-22T06:03:55;98417.81;;;8.55;100.00
76054;BME280;64752;48.870;9.082;2024-03-22T06:06:20;98422.88;;;8.59;100.00
76054;BME280;64752;48.870;9.082;2024-03-22T06:08:50;98422.53;;;8.75;100.00
76054;BME280;64752;48.870;9.082;2024-03-22T06:11:18;98424.19;;;8.79;100.00
76054;BME280;64752;48.870;9.082;2024-03-22T06:13:43;98425.81;;;8.83;100.00
76054;BME280;64752;48.870;9.082;2024-03-22T06:16:09;98429.13;;;8.90;100.00
76054;BME280;64752;48.870;9.082;2024-03-22T06:18:34;98420.50;;;8.89;100.00
76054;BME280;64752;48.870;9.082;2024-03-22T06:20:59;98431.66;;;8.91;100.00
76054;BME280;64752;48.870;9.082;2024-03-22T06:23:25;98427.19;;;8.99;100.00
76054;BME280;64752;48.870;9.082;2024-03-22T06:25:54;98428.69;;;9.10;100.00
76054;BME280;64752;48.870;9.082;2024-03-22T06:28:19;98431.94;;;9.19;100.00
76054;BME280;64752;48.870;9.082;2024-03-22T06:30:45;98422.16;;;9.32;100.00
76054;BME280;64752;48.870;9.082;2024-03-22T06:33:10;98431.25;;;9.49;100.00
76054;BME280;64752;48.870;9.082;2024-03-22T06:35:35;98417.97;;;9.62;100.00
76054;BME280;64752;48.870;9.082;2024-03-22T06:38:01;98416.47;;;9.88;100.00
76054;BME280;64752;48.870;9.082;2024-03-22T06:40:28;98415.72;;;10.16;98.13
76054;BME280;64752;48.870;9.082;2024-03-22T06:42:53;98412.22;;;10.51;96.14
76054;BME280;64752;48.870;9.082;2024-03-22T06:45:19;98414.84;;;11.09;93.61
76054;BME280;64752;48.870;9.082;2024-03-22T06:47:44;98406.44;;;12.09;89.28
76054;BME280;64752;48.870;9.082;2024-03-22T06:50:11;98408.44;;;13.19;82.45
76054;BME280;64752;48.870;9.082;2024-03-22T06:52:36;98407.38;;;14.10;78.13
76054;BME280;64752;48.870;9.082;2024-03-22T06:55:01;98411.72;;;14.70;74.77
76054;BME280;64752;48.870;9.082;2024-03-22T06:57:28;98409.84;;;14.53;71.47
76054;BME280;64752;48.870;9.082;2024-03-22T06:59:53;98415.84;;;14.36;72.96
76054;BME280;64752;48.870;9.082;2024-03-22T07:02:18;98412.28;;;14.57;71.80
76054;BME280;64752;48.870;9.082;2024-03-22T07:04:44;98404.97;;;15.03;69.32
76054;BME280;64752;48.870;9.082;2024-03-22T07:07:09;98405.25;;;15.70;67.50
76054;BME280;64752;48.870;9.082;2024-03-22T07:09:35;98402.75;;;16.04;64.05
76054;BME280;64752;48.870;9.082;2024-03-22T07:12:01;98403.78;;;16.34;63.16
76054;BME280;64752;48.870;9.082;2024-03-22T07:14:26;98399.13;;;15.89;66.21
76054;BME280;64752;48.870;9.082;2024-03-22T07:16:52;98399.75;;;16.78;61.64
76054;BME280;64752;48.870;9.082;2024-03-22T07:19:20;98401.91;;;17.49;58.64
76054;BME280;64752;48.870;9.082;2024-03-22T07:21:46;98390.69;;;17.47;57.29
76054;BME280;64752;48.870;9.082;2024-03-22T07:24:12;98389.19;;;18.04;56.94
76054;BME280;64752;48.870;9.082;2024-03-22T07:26:37;98390.53;;;18.97;53.22
76054;BME280;64752;48.870;9.082;2024-03-22T07:29:03;98387.19;;;19.62;51.69
76054;BME280;64752;48.870;9.082;2024-03-22T07:31:28;98383.50;;;19.52;50.73
76054;BME280;64752;48.870;9.082;2024-03-22T07:33:53;98379.13;;;19.11;52.05
76054;BME280;64752;48.870;9.082;2024-03-22T07:36:19;98380.09;;;19.37;50.66
76054;BME280;64752;48.870;9.082;2024-03-22T07:38:44;98378.97;;;19.00;51.40
76054;BME280;64752;48.870;9.082;2024-03-22T07:41:10;98379.47;;;18.49;52.22
76054;BME280;64752;48.870;9.082;2024-03-22T07:43:35;98374.66;;;18.99;53.13
76054;BME280;64752;48.870;9.082;2024-03-22T07:46:00;98372.03;;;19.26;50.54
76054;BME280;64752;48.870;9.082;2024-03-22T07:48:26;98364.00;;;19.42;51.59
76054;BME280;64752;48.870;9.082;2024-03-22T07:50:58;98369.84;;;20.26;49.10
76054;BME280;64752;48.870;9.082;2024-03-22T07:53:23;98366.94;;;20.80;48.37
76054;BME280;64752;48.870;9.082;2024-03-22T07:55:49;98370.66;;;20.52;48.77
76054;BME280;64752;48.870;9.082;2024-03-22T07:58:14;98380.31;;;21.86;45.54
76054;BME280;64752;48.870;9.082;2024-03-22T08:00:39;98372.97;;;22.37;44.56
76054;BME280;64752;48.870;9.082;2024-03-22T08:03:05;98375.38;;;23.07;43.16
76054;BME280;64752;48.870;9.082;2024-03-22T08:05:31;98372.53;;;22.07;44.09
76054;BME280;64752;48.870;9.082;2024-03-22T08:07:56;98373.63;;;23.29;42.70
76054;BME280;64752;48.870;9.082;2024-03-22T08:10:22;98369.72;;;21.75;45.54
76054;BME280;64752;48.870;9.082;2024-03-22T08:12:48;98369.88;;;23.32;42.98
76054;BME280;64752;48.870;9.082;2024-03-22T08:15:14;98369.69;;;25.21;39.06
76054;BME280;64752;48.870;9.082;2024-03-22T08:17:40;98363.25;;;23.05;42.46
76054;BME280;64752;48.870;9.082;2024-03-22T08:20:06;98360.69;;;22.13;44.39
76054;BME280;64752;48.870;9.082;2024-03-22T08:22:31;98355.25;;;20.46;49.20
76054;BME280;64752;48.870;9.082;2024-03-22T08:24:57;98348.97;;;20.98;47.48
76054;BME280;64752;48.870;9.082;2024-03-22T08:27:22;98352.16;;;21.14;47.75
76054;BME280;64752;48.870;9.082;2024-03-22T08:29:48;98350.75;;;20.97;47.57
76054;BME280;64752;48.870;9.082;2024-03-22T08:32:13;98341.91;;;19.84;49.13
76054;BME280;64752;48.870;9.082;2024-03-22T08:34:38;98344.25;;;20.90;47.91
76054;BME280;64752;48.870;9.082;2024-03-22T08:37:04;98346.00;;;20.27;49.70
76054;BME280;64752;48.870;9.082;2024-03-22T08:39:30;98345.25;;;20.38;48.64
76054;BME280;64752;48.870;9.082;2024-03-22T08:41:56;98335.78;;;20.61;49.26
76054;BME280;64752;48.870;9.082;2024-03-22T08:44:22;98333.44;;;20.56;49.99
76054;BME280;64752;48.870;9.082;2024-03-22T08:46:47;98336.69;;;20.73;48.99
76054;BME280;64752;48.870;9.082;2024-03-22T08:49:13;98339.97;;;21.01;48.84
76054;BME280;64752;48.870;9.082;2024-03-22T08:51:39;98335.38;;;21.15;47.83
76054;BME280;64752;48.870;9.082;2024-03-22T08:54:04;98336.69;;;21.58;47.00
76054;BME280;64752;48.870;9.082;2024-03-22T08:56:30;98331.94;;;21.86;46.16
76054;BME280;64752;48.870;9.082;2024-03-22T08:58:55;98326.91;;;22.05;45.66
76054;BME280;64752;48.870;9.082;2024-03-22T09:01:21;98320.19;;;20.32;48.48
76054;BME280;64752;48.870;9.082;2024-03-22T09:03:47;98319.75;;;20.64;49.34
76054;BME280;64752;48.870;9.082;2024-03-22T09:06:16;98320.50;;;21.38;45.50
76054;BME280;64752;48.870;9.082;2024-03-22T09:08:41;98317.91;;;20.28;48.04
76054;BME280;64752;48.870;9.082;2024-03-22T09:11:07;98317.41;;;21.80;46.30
76054;BME280;64752;48.870;9.082;2024-03-22T09:13:32;98305.00;;;23.16;44.06
76054;BME280;64752;48.870;9.082;2024-03-22T09:16:00;98307.84;;;22.69;43.90
76054;BME280;64752;48.870;9.082;2024-03-22T09:18:26;98309.47;;;21.69;44.96
76054;BME280;64752;48.870;9.082;2024-03-22T09:20:55;98302.06;;;22.76;42.11
76054;BME280;64752;48.870;9.082;2024-03-22T09:23:21;98311.94;;;23.17;40.37
76054;BME280;64752;48.870;9.082;2024-03-22T09:25:47;98307.44;;;22.97;41.11
76054;BME280;64752;48.870;9.082;2024-03-22T09:28:15;98307.75;;;22.60;41.62
76054;BME280;64752;48.870;9.082;2024-03-22T09:30:41;98310.09;;;24.34;39.39
76054;BME280;64752;48.870;9.082;2024-03-22T09:33:09;98307.16;;;24.68;38.28
76054;BME280;64752;48.870;9.082;2024-03-22T09:35:35;98306.00;;;25.50;37.80
76054;BME280;64752;48.870;9.082;2024-03-22T09:38:01;98293.09;;;25.75;37.85
76054;BME280;64752;48.870;9.082;2024-03-22T09:40:28;98294.97;;;25.45;37.97
76054;BME280;64752;48.870;9.082;2024-03-22T09:43:00;98297.97;;;26.92;35.89
76054;BME280;64752;48.870;9.082;2024-03-22T09:45:27;98291.00;;;26.26;36.49
76054;BME280;64752;48.870;9.082;2024-03-22T09:47:53;98292.94;;;26.71;35.80
76054;BME280;64752;48.870;9.082;2024-03-22T09:50:21;98277.16;;;25.75;36.44
76054;BME280;64752;48.870;9.082;2024-03-22T09:52:47;98271.09;;;26.40;35.92
76054;BME280;64752;48.870;9.082;2024-03-22T09:55:12;98270.34;;;26.47;35.43
76054;BME280;64752;48.870;9.082;2024-03-22T09:57:39;98266.47;;;25.28;37.99
76054;BME280;64752;48.870;9.082;2024-03-22T10:00:09;98259.56;;;23.95;39.65
76054;BME280;64752;48.870;9.082;2024-03-22T10:02:36;98252.63;;;21.99;42.34
76054;BME280;64752;48.870;9.082;2024-03-22T10:05:02;98249.84;;;24.05;39.72
76054;BME280;64752;48.870;9.082;2024-03-22T10:07:28;98254.72;;;22.73;41.60
76054;BME280;64752;48.870;9.082;2024-03-22T10:09:53;98251.44;;;22.80;40.94
76054;BME280;64752;48.870;9.082;2024-03-22T10:12:18;98248.59;;;22.72;41.58
76054;BME280;64752;48.870;9.082;2024-03-22T10:14:45;98248.13;;;23.11;40.54
76054;BME280;64752;48.870;9.082;2024-03-22T10:17:11;98246.97;;;24.18;39.17
76054;BME280;64752;48.870;9.082;2024-03-22T10:19:36;98243.94;;;23.71;39.41
76054;BME280;64752;48.870;9.082;2024-03-22T10:22:03;98232.53;;;24.01;37.93
76054;BME280;64752;48.870;9.082;2024-03-22T10:24:29;98225.28;;;21.06;43.75
76054;BME280;64752;48.870;9.082;2024-03-22T10:26:55;98222.34;;;22.37;41.92
76054;BME280;64752;48.870;9.082;2024-03-22T10:29:21;98219.47;;;21.94;42.20
76054;BME280;64752;48.870;9.082;2024-03-22T10:31:47;98216.19;;;23.44;40.30
76054;BME280;64752;48.870;9.082;2024-03-22T10:34:13;98213.75;;;24.14;39.33
76054;BME280;64752;48.870;9.082;2024-03-22T10:36:39;98206.34;;;24.68;37.78
76054;BME280;64752;48.870;9.082;2024-03-22T10:39:05;98202.63;;;23.38;39.61
76054;BME280;64752;48.870;9.082;2024-03-22T10:41:31;98201.31;;;22.79;38.77
76054;BME280;64752;48.870;9.082;2024-03-22T10:43:57;98188.63;;;24.09;37.82
76054;BME280;64752;48.870;9.082;2024-03-22T10:46:23;98184.94;;;25.57;34.58
76054;BME280;64752;48.870;9.082;2024-03-22T10:48:50;98194.50;;;24.62;35.27
76054;BME280;64752;48.870;9.082;2024-03-22T10:51:16;98186.38;;;22.57;38.85
76054;BME280;64752;48.870;9.082;2024-03-22T10:53:42;98184.66;;;22.99;38.80
76054;BME280;64752;48.870;9.082;2024-03-22T10:56:09;98183.50;;;24.96;35.99
76054;BME280;64752;48.870;9.082;2024-03-22T10:58:39;98179.56;;;26.96;33.01
76054;BME280;64752;48.870;9.082;2024-03-22T11:01:05;98179.03;;;27.89;32.05
76054;BME280;64752;48.870;9.082;2024-03-22T11:03:37;98178.47;;;26.07;33.09
76054;BME280;64752;48.870;9.082;2024-03-22T11:06:07;98167.00;;;26.07;33.37
76054;BME280;64752;48.870;9.082;2024-03-22T11:08:32;98164.38;;;27.33;33.05
76054;BME280;64752;48.870;9.082;2024-03-22T11:11:09;98156.72;;;26.58;33.11
76054;BME280;64752;48.870;9.082;2024-03-22T11:13:41;98150.00;;;27.78;32.10
76054;BME280;64752;48.870;9.082;2024-03-22T11:16:09;98154.19;;;27.54;31.33
76054;BME280;64752;48.870;9.082;2024-03-22T11:18:35;98146.78;;;27.40;32.22
76054;BME280;64752;48.870;9.082;2024-03-22T11:21:00;98145.81;;;26.15;33.32
76054;BME280;64752;48.870;9.082;2024-03-22T11:23:26;98139.00;;;25.18;34.05
76054;BME280;64752;48.870;9.082;2024-03-22T11:25:51;98133.31;;;26.97;32.45
76054;BME280;64752;48.870;9.082;2024-03-22T11:28:16;98125.06;;;26.64;33.21
76054;BME280;64752;48.870;9.082;2024-03-22T11:30:43;98116.13;;;27.09;32.55
76054;BME280;64752;48.870;9.082;2024-03-22T11:33:10;98117.06;;;26.28;33.26
76054;BME280;64752;48.870;9.082;2024-03-22T11:35:35;98110.97;;;27.34;31.33
76054;BME280;64752;48.870;9.082;2024-03-22T11:38:00;98113.03;;;27.48;32.47
76054;BME280;64752;48.870;9.082;2024-03-22T11:40:26;98099.44;;;27.60;32.22
76054;BME280;64752;48.870;9.082;2024-03-22T11:42:53;98096.56;;;28.79;27.41
76054;BME280;64752;48.870;9.082;2024-03-22T11:45:20;98080.59;;;27.01;29.74
76054;BME280;64752;48.870;9.082;2024-03-22T11:47:47;98085.59;;;24.35;34.49
76054;BME280;64752;48.870;9.082;2024-03-22T11:50:13;98084.78;;;25.40;33.68
76054;BME280;64752;48.870;9.082;2024-03-22T11:52:40;98075.13;;;26.40;30.62
76054;BME280;64752;48.870;9.082;2024-03-22T11:55:06;98071.38;;;25.97;30.77
76054;BME280;64752;48.870;9.082;2024-03-22T11:57:34;98072.28;;;25.13;32.41
76054;BME280;64752;48.870;9.082;2024-03-22T12:00:04;98073.22;;;25.31;32.21
76054;BME280;64752;48.870;9.082;2024-03-22T12:02:35;98072.91;;;24.19;35.73
76054;BME280;64752;48.870;9.082;2024-03-22T12:05:00;98060.94;;;23.34;35.98
76054;BME280;64752;48.870;9.082;2024-03-22T12:07:39;98055.59;;;24.44;34.95
76054;BME280;64752;48.870;9.082;2024-03-22T12:10:05;98060.75;;;23.97;33.76
76054;BME280;64752;48.870;9.082;2024-03-22T12:12:31;98046.84;;;25.10;33.01
76054;BME280;64752;48.870;9.082;2024-03-22T12:14:56;98037.63;;;24.28;35.60
76054;BME280;64752;48.870;9.082;2024-03-22T12:17:22;98032.63;;;24.54;35.00
76054;BME280;64752;48.870;9.082;2024-03-22T12:19:47;98029.69;;;24.28;35.44
76054;BME280;64752;48.870;9.082;2024-03-22T12:22:13;98024.91;;;24.51;34.46
76054;BME280;64752;48.870;9.082;2024-03-22T12:24:38;98018.19;;;24.76;33.92
76054;BME280;64752;48.870;9.082;2024-03-22T12:27:04;98011.06;;;23.70;35.47
76054;BME280;64752;48.870;9.082;2024-03-22T12:29:32;98006.94;;;24.06;34.98
76054;BME280;64752;48.870;9.082;2024-03-22T12:31:57;97999.53;;;23.80;35.22
76054;BME280;64752;48.870;9.082;2024-03-22T12:34:26;97999.06;;;24.73;33.44
76054;BME280;64752;48.870;9.082;2024-03-22T12:36:51;98001.38;;;24.19;34.58
76054;BME280;64752;48.870;9.082;2024-03-22T12:39:16;97993.13;;;23.33;35.61
76054;BME280;64752;48.870;9.082;2024-03-22T12:41:42;97985.75;;;23.36;36.17
76054;BME280;64752;48.870;9.082;2024-03-22T12:44:07;97986.00;;;24.03;34.81
76054;BME280;64752;48.870;9.082;2024-03-22T12:46:32;97983.38;;;23.93;34.54
76054;BME280;64752;48.870;9.082;2024-03-22T12:48:58;97979.66;;;23.45;34.53
76054;BME280;64752;48.870;9.082;2024-03-22T12:51:23;97974.19;;;23.37;34.98
76054;BME280;64752;48.870;9.082;2024-03-22T12:53:49;97974.03;;;23.99;33.92